createdAt,value
2022-07-28T00:00:56.149Z,23.35
2022-07-28T00:03:22.858Z,23.34
2022-07-28T00:05:49.488Z,23.29
2022-07-28T00:08:16.677Z,23.28
2022-07-28T00:10:43.271Z,23.26
2022-07-28T00:13:09.811Z,23.23
2022-07-28T00:15:36.401Z,23.22
2022-07-28T00:18:02.987Z,23.19
2022-07-28T00:20:30.694Z,23.18
2022-07-28T00:22:57.284Z,23.16
2022-07-28T00:25:23.891Z,23.13
2022-07-28T00:27:50.540Z,23.11
2022-07-28T00:30:17.110Z,23.07
2022-07-28T00:32:43.815Z,23.08
2022-07-28T00:35:10.341Z,23.06
2022-07-28T00:37:39.810Z,23.04
2022-07-28T00:40:07.821Z,23.00
2022-07-28T00:42:34.454Z,22.96
2022-07-28T00:45:01.161Z,22.92
2022-07-28T00:47:27.770Z,22.89
2022-07-28T00:50:01.507Z,22.85
2022-07-28T00:52:28.235Z,22.82
2022-07-28T00:54:54.775Z,22.82
2022-07-28T00:57:21.951Z,22.77
2022-07-28T00:59:48.475Z,22.76
2022-07-28T01:02:15.680Z,22.74
2022-07-28T01:04:42.454Z,22.69
2022-07-28T01:07:26.839Z,22.62
2022-07-28T01:09:58.868Z,22.59
2022-07-28T01:12:53.228Z,22.53
2022-07-28T01:15:29.877Z,22.48
2022-07-28T01:18:05.028Z,22.42
2022-07-28T01:21:08.666Z,22.34
2022-07-28T01:24:02.353Z,22.28
2022-07-28T01:26:57.996Z,22.24
2022-07-28T01:29:58.056Z,22.16
2022-07-28T01:32:29.837Z,22.09
2022-07-28T01:35:23.193Z,22.08
2022-07-28T01:37:55.551Z,22.00
2022-07-28T01:40:25.873Z,21.94
2022-07-28T01:42:56.636Z,21.85
2022-07-28T01:45:25.040Z,21.79
2022-07-28T01:47:54.461Z,21.71
2022-07-28T01:50:24.631Z,21.67
2022-07-28T01:52:52.534Z,21.58
2022-07-28T01:55:21.528Z,21.52
2022-07-28T01:57:50.161Z,21.47
2022-07-28T02:00:17.923Z,21.37
2022-07-28T02:02:49.067Z,21.32
2022-07-28T02:05:22.015Z,21.24
2022-07-28T02:07:50.188Z,21.19
2022-07-28T02:10:17.902Z,21.15
2022-07-28T02:12:46.548Z,21.11
2022-07-28T02:15:14.928Z,21.05
2022-07-28T02:17:45.338Z,20.96
2022-07-28T02:20:14.525Z,20.81
2022-07-28T02:22:42.720Z,20.78
2022-07-28T02:25:09.970Z,20.75
2022-07-28T02:27:39.955Z,20.64
2022-07-28T02:30:18.123Z,20.63
2022-07-28T02:32:53.864Z,20.63
2022-07-28T02:35:32.808Z,20.61
2022-07-28T02:38:02.501Z,20.57
2022-07-28T02:40:36.403Z,20.51
2022-07-28T02:43:06.158Z,20.44
2022-07-28T02:45:35.772Z,20.40
2022-07-28T02:48:07.783Z,20.36
2022-07-28T02:50:34.372Z,20.35
2022-07-28T02:53:14.912Z,20.34
2022-07-28T02:55:44.042Z,20.32
2022-07-28T02:58:12.660Z,20.18
2022-07-28T03:00:40.754Z,20.07
2022-07-28T03:03:09.530Z,19.94
2022-07-28T03:05:36.701Z,19.90
2022-07-28T03:08:03.336Z,19.90
2022-07-28T03:10:33.125Z,19.88
2022-07-28T03:13:02.630Z,19.86
2022-07-28T03:15:29.344Z,19.93
2022-07-28T03:17:55.854Z,20.03
2022-07-28T03:20:22.388Z,20.08
2022-07-28T03:22:50.117Z,20.05
2022-07-28T03:25:22.567Z,20.07
2022-07-28T03:27:52.886Z,20.05
2022-07-28T03:30:27.130Z,20.03
2022-07-28T03:32:58.334Z,20.15
2022-07-28T03:35:25.921Z,20.34
2022-07-28T03:37:59.726Z,20.23
2022-07-28T03:40:29.702Z,20.19
2022-07-28T03:42:57.525Z,20.39
2022-07-28T03:45:25.271Z,20.49
2022-07-28T03:47:57.529Z,20.46
2022-07-28T03:50:25.783Z,20.45
2022-07-28T03:52:53.315Z,20.47
2022-07-28T03:55:20.074Z,20.41
2022-07-28T03:57:46.904Z,20.19
2022-07-28T04:00:16.014Z,20.18
2022-07-28T04:02:46.694Z,20.21
2022-07-28T04:05:14.763Z,20.22
2022-07-28T04:07:42.487Z,20.17
2022-07-28T04:10:11.775Z,20.16
2022-07-28T04:12:53.271Z,20.21
2022-07-28T04:15:20.112Z,20.17
2022-07-28T04:17:49.204Z,20.16
2022-07-28T04:20:17.271Z,20.20
2022-07-28T04:22:48.245Z,20.25
2022-07-28T04:25:16.858Z,20.30
2022-07-28T04:27:44.219Z,20.36
2022-07-28T04:30:17.065Z,20.48
2022-07-28T04:32:48.248Z,20.66
2022-07-28T04:35:17.731Z,20.79
2022-07-28T04:37:45.172Z,20.99
2022-07-28T04:40:13.231Z,21.17
2022-07-28T04:42:40.762Z,21.25
2022-07-28T04:45:09.606Z,21.32
2022-07-28T04:47:37.016Z,21.38
2022-07-28T04:50:04.925Z,21.41
2022-07-28T04:52:31.599Z,21.49
2022-07-28T04:54:58.140Z,21.50
2022-07-28T04:57:26.782Z,21.49
2022-07-28T04:59:56.688Z,21.51
2022-07-28T05:02:23.541Z,21.52
2022-07-28T05:04:50.217Z,21.53
2022-07-28T05:07:16.801Z,21.55
2022-07-28T05:09:43.363Z,21.57
2022-07-28T05:12:10.038Z,21.57
2022-07-28T05:14:36.696Z,21.62
2022-07-28T05:17:03.421Z,21.66
2022-07-28T05:19:29.956Z,21.70
2022-07-28T05:21:56.476Z,21.71
2022-07-28T05:24:23.005Z,21.76
2022-07-28T05:26:49.564Z,21.84
2022-07-28T05:29:16.120Z,21.93
2022-07-28T05:31:42.725Z,22.04
2022-07-28T05:34:09.381Z,22.14
2022-07-28T05:36:36.239Z,22.23
2022-07-28T05:39:03.696Z,22.34
2022-07-28T05:41:30.266Z,22.44
2022-07-28T05:43:58.371Z,22.55
2022-07-28T05:46:24.966Z,22.62
2022-07-28T05:48:52.003Z,22.70
2022-07-28T05:51:18.873Z,22.78
2022-07-28T05:53:45.455Z,22.88
2022-07-28T05:56:11.974Z,22.95
2022-07-28T05:58:38.512Z,23.04
2022-07-28T06:01:05.256Z,23.13
2022-07-28T06:03:39.751Z,23.23
2022-07-28T06:06:15.675Z,23.36
2022-07-28T06:08:44.522Z,23.45
2022-07-28T06:11:11.838Z,23.58
2022-07-28T06:13:47.757Z,23.84
2022-07-28T06:16:14.460Z,23.98
2022-07-28T06:18:41.072Z,24.08
2022-07-28T06:21:07.602Z,24.21
2022-07-28T06:23:34.212Z,24.32
2022-07-28T06:26:00.818Z,24.36
2022-07-28T06:28:27.542Z,24.39
2022-07-28T06:30:54.150Z,24.40
2022-07-28T06:33:20.651Z,24.42
2022-07-28T06:35:51.038Z,24.43
2022-07-28T06:38:20.276Z,24.43
2022-07-28T06:40:47.175Z,24.46
2022-07-28T06:43:14.681Z,24.49
2022-07-28T06:45:41.443Z,24.52
2022-07-28T06:48:10.682Z,24.53
2022-07-28T06:50:39.380Z,24.54
2022-07-28T06:53:06.377Z,24.58
2022-07-28T06:55:35.262Z,24.59
2022-07-28T06:58:06.125Z,24.64
2022-07-28T07:00:33.145Z,24.67
2022-07-28T07:03:00.952Z,24.73
2022-07-28T07:05:29.990Z,24.79
2022-07-28T07:07:56.632Z,24.88
2022-07-28T07:10:23.546Z,24.99
2022-07-28T07:12:50.074Z,25.07
2022-07-28T07:15:16.628Z,25.19
2022-07-28T07:17:43.158Z,25.22
2022-07-28T07:20:10.557Z,25.27
2022-07-28T07:22:47.696Z,25.33
2022-07-28T07:25:16.632Z,25.41
2022-07-28T07:27:44.092Z,25.46
2022-07-28T07:30:11.252Z,25.55
2022-07-28T07:32:38.881Z,25.61
2022-07-28T07:35:06.520Z,25.64
2022-07-28T07:37:33.288Z,25.68
2022-07-28T07:40:01.186Z,25.76
2022-07-28T07:42:28.200Z,25.86
2022-07-28T07:44:54.971Z,25.92
2022-07-28T07:47:21.504Z,26.00
2022-07-28T07:49:48.071Z,26.09
2022-07-28T07:52:14.938Z,26.17
2022-07-28T07:54:42.312Z,26.25
2022-07-28T07:57:10.000Z,26.34
2022-07-28T07:59:36.732Z,26.43
2022-07-28T08:02:03.956Z,26.53
2022-07-28T08:04:30.775Z,26.60
2022-07-28T08:06:57.438Z,26.61
2022-07-28T08:09:24.331Z,26.64
2022-07-28T08:11:51.031Z,26.67
2022-07-28T08:14:18.293Z,26.74
2022-07-28T08:16:45.198Z,26.75
2022-07-28T08:19:11.863Z,26.71
2022-07-28T08:21:38.559Z,26.72
2022-07-28T08:24:05.534Z,26.72
2022-07-28T08:26:32.078Z,26.77
2022-07-28T08:28:58.620Z,26.90
2022-07-28T08:31:26.506Z,27.04
2022-07-28T08:33:54.558Z,27.14
2022-07-28T08:36:21.935Z,27.25
2022-07-28T08:38:48.450Z,27.32
2022-07-28T08:41:22.835Z,27.40
2022-07-28T08:43:52.705Z,27.48
2022-07-28T08:46:21.115Z,27.59
2022-07-28T08:48:48.257Z,27.74
2022-07-28T08:51:15.999Z,27.86
2022-07-28T08:53:43.255Z,27.98
2022-07-28T08:56:13.966Z,28.10
2022-07-28T08:58:40.960Z,28.19
2022-07-28T09:01:08.953Z,28.27
2022-07-28T09:03:36.491Z,28.35
2022-07-28T09:06:03.857Z,28.43
2022-07-28T09:08:30.459Z,28.44
2022-07-28T09:10:57.088Z,28.53
2022-07-28T09:13:23.651Z,28.66
2022-07-28T09:15:50.470Z,28.81
2022-07-28T09:18:17.946Z,28.96
2022-07-28T09:20:45.403Z,28.99
2022-07-28T09:23:42.756Z,29.04
2022-07-28T09:26:12.062Z,29.05
2022-07-28T09:28:54.554Z,29.13
2022-07-28T09:31:22.790Z,29.27
2022-07-28T09:34:05.634Z,29.40
2022-07-28T09:36:40.334Z,29.52
2022-07-28T09:39:07.711Z,29.53
2022-07-28T09:41:50.976Z,29.55
2022-07-28T09:44:21.678Z,29.60
2022-07-28T09:46:48.625Z,29.74
2022-07-28T09:49:15.560Z,29.90
2022-07-28T09:51:42.557Z,30.06
2022-07-28T09:54:18.397Z,30.21
2022-07-28T09:56:45.688Z,30.38
2022-07-28T09:59:14.980Z,30.46
2022-07-28T10:02:12.791Z,30.54
2022-07-28T10:04:41.609Z,30.61
2022-07-28T10:07:11.428Z,30.62
2022-07-28T10:09:38.903Z,30.62
2022-07-28T10:12:22.959Z,30.67
2022-07-28T10:14:51.956Z,30.81
2022-07-28T10:17:26.952Z,31.00
2022-07-28T10:19:55.149Z,31.12
2022-07-28T10:22:23.590Z,31.24
2022-07-28T10:24:53.005Z,31.31
2022-07-28T10:27:27.779Z,31.43
2022-07-28T10:30:03.610Z,31.59
2022-07-28T10:32:38.202Z,31.77
2022-07-28T10:35:15.945Z,31.92
2022-07-28T10:38:00.052Z,32.12
2022-07-28T10:40:31.976Z,32.30
2022-07-28T10:43:00.310Z,32.43
2022-07-28T10:45:47.950Z,32.57
2022-07-28T10:48:15.412Z,32.78
2022-07-28T10:50:42.895Z,32.91
2022-07-28T10:53:11.706Z,32.90
2022-07-28T10:55:59.751Z,32.75
2022-07-28T10:59:01.427Z,32.68
2022-07-28T11:01:50.090Z,32.66
2022-07-28T11:04:46.168Z,32.38
2022-07-28T11:07:14.985Z,32.28
2022-07-28T11:09:41.627Z,32.42
2022-07-28T11:12:09.875Z,32.63
2022-07-28T11:14:39.169Z,32.72
2022-07-28T11:17:05.774Z,32.64
2022-07-28T11:22:34.368Z,32.71
2022-07-28T11:25:20.511Z,32.76
2022-07-28T11:27:51.547Z,32.87
2022-07-28T11:30:35.850Z,32.89
2022-07-28T11:33:04.631Z,32.88
2022-07-28T11:35:52.048Z,32.91
2022-07-28T11:38:19.127Z,33.02
2022-07-28T11:40:47.608Z,32.93
2022-07-28T11:43:35.488Z,32.98
2022-07-28T11:46:04.580Z,33.08
2022-07-28T11:48:33.736Z,33.19
2022-07-28T11:51:03.413Z,33.27
2022-07-28T11:53:33.273Z,33.40
2022-07-28T11:56:03.299Z,33.49
2022-07-28T11:58:30.143Z,33.63
2022-07-28T12:01:20.027Z,33.88
2022-07-28T12:03:54.969Z,34.09
2022-07-28T12:06:28.637Z,34.15
2022-07-28T12:09:01.407Z,33.93
2022-07-28T12:11:31.830Z,33.79
2022-07-28T12:14:03.012Z,33.41
2022-07-28T12:16:30.803Z,33.12
2022-07-28T12:19:00.745Z,32.91
2022-07-28T12:21:47.963Z,32.86
2022-07-28T12:24:18.583Z,32.80
2022-07-28T12:26:49.171Z,32.78
2022-07-28T12:29:17.416Z,32.75
2022-07-28T12:32:00.900Z,32.76
2022-07-28T12:34:29.608Z,32.73
2022-07-28T12:37:04.479Z,32.66
2022-07-28T12:39:36.714Z,32.55
2022-07-28T12:42:05.942Z,32.66
2022-07-28T12:44:35.146Z,32.91
2022-07-28T12:47:02.816Z,33.17
2022-07-28T12:49:29.384Z,33.42
2022-07-28T12:51:58.193Z,33.52
2022-07-28T12:54:36.047Z,33.53
2022-07-28T12:57:03.625Z,33.56
2022-07-28T12:59:35.420Z,33.72
2022-07-28T13:02:05.518Z,33.77
2022-07-28T13:04:42.567Z,33.83
2022-07-28T13:07:32.018Z,33.88
2022-07-28T13:10:07.258Z,34.03
2022-07-28T13:12:39.319Z,34.24
2022-07-28T13:15:16.359Z,34.43
2022-07-28T13:17:51.152Z,34.58
2022-07-28T13:20:18.601Z,34.74
2022-07-28T13:22:45.695Z,34.79
2022-07-28T13:25:13.374Z,34.82
2022-07-28T13:27:41.248Z,34.90
2022-07-28T13:30:09.599Z,35.03
2022-07-28T13:32:37.008Z,34.98
2022-07-28T13:35:06.088Z,34.87
2022-07-28T13:37:41.501Z,34.74
2022-07-28T13:40:08.846Z,34.66
2022-07-28T13:42:35.435Z,34.56
2022-07-28T13:45:05.089Z,34.49
2022-07-28T13:47:35.617Z,34.41
2022-07-28T13:50:06.696Z,34.53
2022-07-28T13:52:37.290Z,34.50
2022-07-28T13:55:06.093Z,34.36
2022-07-28T13:57:36.358Z,34.03
2022-07-28T14:00:08.048Z,33.86
2022-07-28T14:02:35.735Z,33.78
2022-07-28T14:05:02.668Z,33.66
2022-07-28T14:07:29.311Z,33.60
2022-07-28T14:09:55.843Z,33.67
2022-07-28T14:12:22.477Z,33.77
2022-07-28T14:14:51.475Z,33.88
2022-07-28T14:20:10.310Z,34.09
2022-07-28T14:22:36.846Z,34.07
2022-07-28T14:25:03.782Z,34.19
2022-07-28T14:27:30.615Z,34.21
2022-07-28T14:29:57.206Z,33.99
2022-07-28T14:32:23.839Z,33.93
2022-07-28T14:34:50.770Z,34.26
2022-07-28T14:37:17.852Z,34.54
2022-07-28T14:39:44.653Z,34.68
2022-07-28T14:42:11.791Z,34.93
2022-07-28T14:44:38.346Z,35.33
2022-07-28T14:47:06.557Z,35.78
2022-07-28T14:49:34.559Z,36.16
2022-07-28T14:52:01.274Z,36.45
2022-07-28T14:54:27.963Z,36.75
2022-07-28T14:56:54.884Z,37.15
2022-07-28T14:59:21.611Z,37.45
2022-07-28T15:01:48.943Z,37.68
2022-07-28T15:04:16.455Z,37.94
2022-07-28T15:06:43.394Z,38.20
2022-07-28T15:09:10.213Z,38.38
2022-07-28T15:11:37.526Z,38.51
2022-07-28T15:14:04.507Z,38.60
2022-07-28T15:16:31.368Z,38.94
2022-07-28T15:18:58.311Z,39.07
2022-07-28T15:21:25.103Z,38.56
2022-07-28T15:23:51.770Z,38.23
2022-07-28T15:26:18.307Z,37.78
2022-07-28T15:28:48.301Z,37.11
2022-07-28T15:31:15.984Z,36.59
2022-07-28T15:33:48.268Z,36.19
2022-07-28T15:36:18.464Z,36.21
2022-07-28T15:38:47.482Z,36.29
2022-07-28T15:41:16.776Z,36.40
2022-07-28T15:43:43.963Z,36.47
2022-07-28T15:46:13.023Z,36.61
2022-07-28T15:48:41.742Z,36.64
2022-07-28T15:51:09.204Z,36.58
2022-07-28T15:53:36.658Z,36.49
2022-07-28T15:56:04.679Z,36.38
2022-07-28T15:58:31.834Z,36.18
2022-07-28T16:01:00.940Z,35.97
2022-07-28T16:03:28.733Z,35.68
2022-07-28T16:05:55.337Z,35.56
2022-07-28T16:08:23.300Z,35.61
2022-07-28T16:10:51.612Z,35.71
2022-07-28T16:13:33.310Z,35.81
2022-07-28T16:16:12.467Z,35.85
2022-07-28T16:18:42.831Z,35.95
2022-07-28T16:21:10.659Z,36.08
2022-07-28T16:23:37.183Z,36.12
2022-07-28T16:26:07.786Z,36.21
2022-07-28T16:28:35.491Z,36.24
2022-07-28T16:31:02.217Z,36.25
2022-07-28T16:33:33.596Z,36.27
2022-07-28T16:36:01.281Z,36.26
2022-07-28T16:38:27.839Z,36.18
2022-07-28T16:40:54.437Z,36.17
2022-07-28T16:43:21.024Z,36.22
2022-07-28T16:45:47.552Z,36.27
2022-07-28T16:48:15.311Z,36.30
2022-07-28T16:50:45.847Z,36.33
2022-07-28T16:53:13.836Z,36.37
2022-07-28T16:55:42.137Z,36.34
2022-07-28T16:58:08.812Z,36.28
2022-07-28T17:00:35.499Z,36.22
2022-07-28T17:03:02.036Z,36.16
2022-07-28T17:05:28.550Z,36.09
2022-07-28T17:07:55.117Z,35.94
2022-07-28T17:10:27.217Z,35.80
2022-07-28T17:12:54.775Z,35.66
2022-07-28T17:15:22.667Z,35.51
2022-07-28T17:17:51.043Z,35.38
2022-07-28T17:20:17.686Z,35.20
2022-07-28T17:22:44.920Z,35.11
2022-07-28T17:25:35.566Z,35.05
2022-07-28T17:27:58.610Z,34.91
2022-07-28T17:30:25.315Z,34.78
2022-07-28T17:32:52.865Z,34.58
2022-07-28T17:35:34.424Z,34.40
2022-07-28T17:38:02.658Z,34.22
2022-07-28T17:40:30.306Z,34.04
2022-07-28T17:42:58.554Z,33.86
2022-07-28T17:45:25.166Z,33.66
2022-07-28T17:47:52.070Z,33.49
2022-07-28T17:50:19.623Z,33.32
2022-07-28T17:52:46.602Z,33.16
2022-07-28T17:55:40.664Z,32.94
2022-07-28T17:58:29.164Z,32.78
2022-07-28T18:01:11.066Z,32.62
2022-07-28T18:03:56.631Z,32.47
2022-07-28T18:06:32.261Z,32.40
2022-07-28T18:09:05.284Z,32.25
2022-07-28T18:11:33.439Z,32.10
2022-07-28T18:14:04.007Z,31.95
2022-07-28T18:16:31.382Z,31.79
2022-07-28T18:18:58.132Z,31.64
2022-07-28T18:21:26.459Z,31.46
2022-07-28T18:23:53.096Z,31.28
2022-07-28T18:26:21.991Z,30.95
2022-07-28T18:28:48.840Z,30.75
2022-07-28T18:31:15.525Z,30.61
2022-07-28T18:33:42.122Z,30.42
2022-07-28T18:36:08.740Z,30.37
2022-07-28T18:38:35.286Z,30.29
2022-07-28T18:41:01.845Z,30.16
2022-07-28T18:43:28.393Z,29.96
2022-07-28T18:45:54.999Z,29.73
2022-07-28T18:48:21.630Z,29.56
2022-07-28T18:50:48.150Z,29.39
2022-07-28T18:53:15.105Z,29.27
2022-07-28T18:55:41.739Z,29.08
2022-07-28T18:58:08.408Z,28.99
2022-07-28T19:00:35.109Z,28.79
2022-07-28T19:03:01.710Z,28.68
2022-07-28T19:05:36.666Z,28.56
2022-07-28T19:08:04.957Z,28.33
2022-07-28T19:10:32.385Z,28.22
2022-07-28T19:12:59.543Z,28.00
2022-07-28T19:15:26.206Z,27.88
2022-07-28T19:18:11.459Z,27.78
2022-07-28T19:20:43.991Z,27.68
2022-07-28T19:23:10.566Z,27.50
2022-07-28T19:25:38.791Z,27.34
2022-07-28T19:28:06.063Z,27.26
2022-07-28T19:30:32.769Z,27.12
2022-07-28T19:32:59.814Z,27.05
2022-07-28T19:35:26.516Z,26.91
2022-07-28T19:37:53.261Z,26.82
2022-07-28T19:40:19.916Z,26.80
2022-07-28T19:42:52.171Z,26.72
2022-07-28T19:45:18.931Z,26.65
2022-07-28T19:47:45.471Z,26.45
2022-07-28T19:50:16.406Z,26.35
2022-07-28T19:52:43.007Z,26.30
2022-07-28T19:55:09.687Z,26.21
2022-07-28T19:57:36.513Z,26.10
2022-07-28T20:00:04.542Z,26.01
2022-07-28T20:02:31.161Z,25.81
2022-07-28T20:04:57.695Z,25.67
2022-07-28T20:07:25.322Z,25.59
2022-07-28T20:09:51.861Z,25.54
2022-07-28T20:12:18.708Z,25.42
2022-07-28T20:14:45.259Z,25.36
2022-07-28T20:17:29.605Z,25.32
2022-07-28T20:19:58.976Z,25.23
2022-07-28T20:22:25.772Z,25.16
2022-07-28T20:24:52.305Z,25.11
2022-07-28T20:27:18.898Z,25.06
2022-07-28T20:29:45.418Z,24.95
2022-07-28T20:32:11.977Z,24.87
2022-07-28T20:34:38.612Z,24.82
2022-07-28T20:37:05.368Z,24.75
2022-07-28T20:39:44.394Z,24.60
2022-07-28T20:42:11.727Z,24.43
2022-07-28T20:44:38.527Z,24.32
2022-07-28T20:47:05.357Z,24.25
2022-07-28T20:49:32.116Z,24.22
2022-07-28T20:51:58.775Z,24.09
2022-07-28T20:54:26.477Z,24.06
2022-07-28T20:56:53.733Z,24.00
2022-07-28T20:59:20.282Z,23.94
2022-07-28T21:01:46.920Z,23.87
2022-07-28T21:04:13.911Z,23.87
2022-07-28T21:06:51.232Z,23.80
2022-07-28T21:09:19.403Z,23.67
2022-07-28T21:11:45.941Z,23.59
2022-07-28T21:14:12.620Z,23.51
2022-07-28T21:16:39.485Z,23.48
2022-07-28T21:19:06.146Z,23.45
2022-07-28T21:21:32.736Z,23.39
2022-07-28T21:23:59.269Z,23.35
2022-07-28T21:26:25.814Z,23.32
2022-07-28T21:29:11.007Z,23.28
2022-07-28T21:32:03.851Z,23.22
2022-07-28T21:34:26.935Z,23.15
2022-07-28T21:36:56.970Z,23.08
2022-07-28T21:39:23.479Z,23.05
2022-07-28T21:41:50.057Z,22.99
2022-07-28T21:44:16.723Z,22.95
2022-07-28T21:46:45.768Z,22.91
2022-07-28T21:49:13.051Z,22.81
2022-07-28T21:51:40.059Z,22.73
2022-07-28T21:54:06.885Z,22.63
2022-07-28T21:56:34.892Z,22.46
2022-07-28T21:59:02.425Z,22.40
2022-07-28T22:01:29.308Z,22.28
2022-07-28T22:03:56.625Z,22.23
2022-07-28T22:06:23.271Z,22.20
2022-07-28T22:08:53.671Z,22.16
2022-07-28T22:11:21.780Z,22.16
2022-07-28T22:13:48.507Z,22.12
2022-07-28T22:16:15.455Z,22.12
2022-07-28T22:18:42.082Z,22.11
2022-07-28T22:21:08.647Z,22.05
2022-07-28T22:23:35.165Z,22.02
2022-07-28T22:26:01.959Z,21.97
2022-07-28T22:28:30.704Z,21.94
2022-07-28T22:30:58.849Z,21.89
2022-07-28T22:33:36.103Z,21.87
2022-07-28T22:36:04.232Z,21.88
2022-07-28T22:38:30.858Z,21.83
2022-07-28T22:40:57.379Z,21.82
2022-07-28T22:43:23.902Z,21.78
2022-07-28T22:45:51.689Z,21.78
2022-07-28T22:48:18.863Z,21.80
2022-07-28T22:50:45.583Z,21.80
2022-07-28T22:53:12.156Z,21.82
2022-07-28T22:58:23.850Z,21.90
2022-07-28T23:00:51.462Z,21.94
2022-07-28T23:03:18.658Z,22.00
2022-07-28T23:05:45.358Z,22.06
2022-07-28T23:08:11.982Z,22.11
2022-07-28T23:10:39.722Z,22.17
2022-07-28T23:13:06.699Z,22.21
2022-07-28T23:15:40.517Z,22.26
2022-07-28T23:18:10.649Z,22.31
2022-07-28T23:20:38.819Z,22.36
2022-07-28T23:23:06.067Z,22.39
2022-07-28T23:25:33.105Z,22.42
2022-07-28T23:28:00.670Z,22.47
2022-07-28T23:30:27.331Z,22.46
2022-07-28T23:32:54.002Z,22.49
2022-07-28T23:35:20.655Z,22.49
2022-07-28T23:37:47.419Z,22.52
2022-07-28T23:40:14.446Z,22.53
2022-07-28T23:42:41.109Z,22.56
2022-07-28T23:45:09.177Z,22.56
2022-07-28T23:47:35.945Z,22.55
2022-07-28T23:50:04.565Z,22.55
2022-07-28T23:52:31.231Z,22.55
2022-07-28T23:54:57.903Z,22.56
2022-07-28T23:57:24.501Z,22.56
2022-07-28T23:59:51.180Z,22.55
